Time;durP1;ratioP1;P1;durP2;ratioP2;P2;SDS_P1;SDS_P2;PMS_P1;PMS_P2;Temp;Humidity;BMP_temperature;BMP_pressure;BME280_temperature;BME280_humidity;BME280_pressure;Samples;Min_cycle;Max_cycle;Signal;HPM_P1;HPM_P2
2021/11/01 00:01:58;;;;;;;3.50;2.97;;;;;;;17.33;54.45;95307.09;5070710;28;20205;-67
2021/11/01 00:04:24;;;;;;;3.07;2.63;;;;;;;16.87;55.27;95318.53;5070146;28;20202;-67
2021/11/01 00:06:50;;;;;;;3.70;2.70;;;;;;;17.07;54.77;95316.47;5071548;28;20423;-68
2021/11/01 00:09:15;;;;;;;3.00;2.70;;;;;;;17.22;54.31;95316.75;5071356;28;20178;-66
2021/11/01 00:11:41;;;;;;;3.00;2.43;;;;;;;17.01;54.97;95316.38;5057876;28;20717;-68
2021/11/01 00:14:07;;;;;;;3.53;3.10;;;;;;;16.41;56.99;95315.03;5050331;28;20218;-68
2021/11/01 00:16:33;;;;;;;2.67;2.43;;;;;;;16.94;55.62;95314.94;5063115;28;20223;-70
2021/11/01 00:18:59;;;;;;;3.40;3.10;;;;;;;16.58;57.01;95313.22;5067221;28;20209;-69
2021/11/01 00:21:25;;;;;;;2.80;2.40;;;;;;;16.19;59.80;95317.53;5059183;28;20420;-70
2021/11/01 00:23:51;;;;;;;2.20;2.00;;;;;;;16.27;61.73;95314.50;5052514;28;20520;-68
2021/11/01 00:26:18;;;;;;;2.43;1.70;;;;;;;16.46;62.01;95309.06;5071490;28;20186;-66
2021/11/01 00:28:44;;;;;;;1.83;1.73;;;;;;;16.69;61.97;95287.78;5069219;28;20763;-69
2021/11/01 00:31:11;;;;;;;2.50;1.47;;;;;;;16.58;62.30;95293.94;5056736;28;20420;-68
2021/11/01 00:33:37;;;;;;;2.03;1.30;;;;;;;17.06;61.18;95306.94;5066716;28;20471;-67
2021/11/01 00:36:03;;;;;;;1.90;1.40;;;;;;;16.67;62.80;95300.44;5057560;28;20944;-67
2021/11/01 00:38:28;;;;;;;1.57;1.30;;;;;;;16.92;62.17;95301.91;5072338;28;20229;-69
2021/11/01 00:40:54;;;;;;;4.33;1.43;;;;;;;17.23;61.45;95307.75;5070017;28;20452;-67
2021/11/01 00:43:20;;;;;;;2.83;1.30;;;;;;;17.08;62.20;95307.50;5071834;28;20202;-67
2021/11/01 00:45:45;;;;;;;1.47;1.37;;;;;;;16.94;63.00;95299.88;5073912;28;20592;-71
2021/11/01 00:48:11;;;;;;;2.33;1.13;;;;;;;16.92;62.83;95301.91;5074473;28;20167;-68
2021/11/01 00:50:38;;;;;;;1.33;1.20;;;;;;;17.52;61.13;95293.63;5065597;28;20262;-67
2021/11/01 00:53:04;;;;;;;3.47;1.23;;;;;;;17.14;62.15;95288.00;5066351;28;20251;-66
2021/11/01 00:56:03;;;;;;;1.40;1.03;;;;;;;17.36;61.93;95290.72;5071920;28;20420;-66
2021/11/01 00:58:23;;;;;;;1.10;0.87;;;;;;;17.56;61.72;95284.16;5053162;28;20461;-66
2021/11/01 01:00:49;;;;;;;1.63;1.20;;;;;;;17.35;62.37;95276.72;5068828;28;20425;-71
2021/11/01 01:03:15;;;;;;;2.13;1.10;;;;;;;17.46;62.48;95282.16;5065515;28;20583;-68
2021/11/01 01:05:43;;;;;;;2.17;1.10;;;;;;;17.35;62.87;95279.34;5080385;28;20432;-68
2021/11/01 01:08:09;;;;;;;2.27;1.03;;;;;;;17.48;62.61;95278.22;5074933;28;20429;-68
2021/11/01 01:10:35;;;;;;;1.23;0.90;;;;;;;17.41;62.85;95271.47;5071335;28;20769;-68
2021/11/01 01:13:00;;;;;;;1.30;1.20;;;;;;;17.37;63.04;95271.16;5069600;28;20471;-67
2021/11/01 01:15:28;;;;;;;1.47;1.10;;;;;;;17.41;63.25;95272.28;5069549;28;20241;-68
2021/11/01 01:18:01;;;;;;;1.20;1.10;;;;;;;17.27;63.50;95266.50;5065534;28;20228;-68
2021/11/01 01:20:26;;;;;;;1.27;1.17;;;;;;;17.28;63.57;95276.06;5069560;28;20421;-68
2021/11/01 01:22:52;;;;;;;1.30;1.10;;;;;;;17.16;64.16;95270.06;5058975;28;20449;-68
2021/11/01 01:25:25;;;;;;;1.10;0.83;;;;;;;17.34;63.76;95266.34;5060935;28;20174;-69
2021/11/01 01:27:52;;;;;;;1.43;1.17;;;;;;;17.35;64.25;95263.47;5062078;28;20190;-73
2021/11/01 01:30:20;;;;;;;1.23;0.93;;;;;;;17.27;64.58;95260.44;5060706;28;20512;-68
2021/11/01 01:32:46;;;;;;;2.37;1.10;;;;;;;17.32;64.57;95263.94;5062402;28;20474;-69
2021/11/01 01:35:13;;;;;;;1.40;1.20;;;;;;;16.98;65.88;95268.44;5068722;28;20955;-67
2021/11/01 01:37:39;;;;;;;1.50;1.40;;;;;;;17.11;65.39;95268.13;5062857;28;20179;-67
2021/11/01 01:40:06;;;;;;;1.60;1.10;;;;;;;17.14;65.27;95272.13;5069233;28;20507;-67
2021/11/01 01:42:35;;;;;;;2.30;1.50;;;;;;;17.24;65.34;95282.06;5059834;28;20524;-67
2021/11/01 01:45:07;;;;;;;1.67;1.30;;;;;;;17.02;66.26;95294.19;5043585;28;20532;-67
2021/11/01 01:47:33;;;;;;;3.47;1.30;;;;;;;17.20;65.89;95289.72;5056327;28;20829;-66
2021/11/01 01:49:58;;;;;;;4.73;1.23;;;;;;;17.13;66.05;95292.50;5063860;28;20845;-68
2021/11/01 01:52:25;;;;;;;1.03;0.93;;;;;;;17.15;66.33;95300.19;5049443;28;20420;-68
2021/11/01 01:54:51;;;;;;;1.37;1.27;;;;;;;17.03;66.73;95306.38;5065738;28;20492;-68
2021/11/01 01:57:16;;;;;;;1.37;1.27;;;;;;;16.99;67.05;95312.38;5072864;28;20450;-67
2021/11/01 01:59:43;;;;;;;2.47;1.60;;;;;;;17.00;67.10;95312.16;5072582;28;20302;-66
2021/11/01 02:02:09;;;;;;;3.07;1.47;;;;;;;16.49;67.09;95319.94;5074137;28;20439;-68
2021/11/01 02:04:35;;;;;;;2.30;1.47;;;;;;;15.91;66.54;95330.44;5074051;28;20440;-67
2021/11/01 02:07:18;;;;;;;1.80;1.30;;;;;;;15.30;67.99;95335.09;5070878;28;20266;-67
2021/11/01 02:09:56;;;;;;;3.00;1.37;;;;;;;15.41;67.36;95333.53;5054740;28;20807;-68
2021/11/01 02:12:43;;;;;;;4.17;1.20;;;;;;;15.51;66.37;95346.94;5077088;28;20891;-66
2021/11/01 02:15:23;;;;;;;1.80;1.00;;;;;;;14.73;66.42;95333.72;5073630;28;20518;-67
2021/11/01 02:17:52;;;;;;;3.00;1.03;;;;;;;14.14;67.65;95344.75;5066946;28;20513;-68
2021/11/01 02:20:37;;;;;;;3.40;0.90;;;;;;;14.34;67.46;95351.63;5072363;28;20424;-66
2021/11/01 02:23:16;;;;;;;4.30;1.17;;;;;;;14.28;67.81;95346.22;5061684;28;20448;-69
2021/11/01 02:25:45;;;;;;;2.07;0.80;;;;;;;14.00;68.15;95354.63;5073674;28;20502;-68
2021/11/01 02:28:16;;;;;;;3.00;0.80;;;;;;;13.72;68.86;95357.75;5057913;28;20425;-67
2021/11/01 02:30:44;;;;;;;4.10;0.80;;;;;;;13.77;69.31;95360.53;5056045;28;20450;-67
2021/11/01 02:33:12;;;;;;;5.13;0.80;;;;;;;13.75;69.76;95341.50;5072222;28;20950;-67
2021/11/01 02:35:38;;;;;;;2.53;0.93;;;;;;;14.01;68.21;95344.91;5065546;28;20818;-67
2021/11/01 02:38:05;;;;;;;5.10;0.90;;;;;;;14.01;68.60;95335.19;5070987;28;20457;-69
2021/11/01 02:40:31;;;;;;;2.80;0.80;;;;;;;13.97;68.48;95332.19;5067107;28;20504;-67
2021/11/01 02:42:58;;;;;;;3.27;1.00;;;;;;;13.45;69.90;95331.69;5072588;28;21017;-67
2021/11/01 02:45:24;;;;;;;2.90;0.90;;;;;;;13.69;69.41;95350.28;5071600;28;20421;-68
2021/11/01 02:47:51;;;;;;;3.90;1.00;;;;;;;13.65;69.57;95355.19;5067425;28;20846;-67
2021/11/01 02:50:19;;;;;;;6.10;0.80;;;;;;;13.67;69.40;95340.78;5073349;28;20428;-68
2021/11/01 02:52:45;;;;;;;3.10;0.90;;;;;;;13.90;68.64;95328.81;5056911;28;20425;-68
2021/11/01 02:55:13;;;;;;;7.47;1.10;;;;;;;13.70;68.88;95322.97;5072514;28;20424;-67
2021/11/01 02:57:39;;;;;;;4.10;1.00;;;;;;;13.56;69.48;95338.88;5070907;28;20186;-67
2021/11/01 03:00:06;;;;;;;2.30;0.70;;;;;;;13.59;69.95;95350.78;5072448;28;20447;-66
2021/11/01 03:02:34;;;;;;;2.23;0.80;;;;;;;13.80;69.68;95352.22;5072770;28;20413;-66
2021/11/01 03:05:02;;;;;;;4.20;1.00;;;;;;;13.79;69.38;95359.31;5072423;28;20750;-67
2021/11/01 03:07:28;;;;;;;2.13;0.90;;;;;;;13.90;69.11;95349.88;5072108;28;20898;-67
2021/11/01 03:09:54;;;;;;;6.37;1.40;;;;;;;13.76;69.27;95343.13;5071142;28;20522;-68
2021/11/01 03:12:24;;;;;;;3.00;0.90;;;;;;;13.82;69.26;95361.50;5072352;28;20416;-67
2021/11/01 03:14:54;;;;;;;3.27;0.90;;;;;;;14.07;68.56;95351.94;5072068;28;20456;-66
2021/11/01 03:17:22;;;;;;;5.10;0.77;;;;;;;13.39;70.31;95361.44;5049504;28;20474;-67
2021/11/01 03:20:02;;;;;;;3.00;0.73;;;;;;;13.83;69.03;95362.31;5070811;28;20460;-66
2021/11/01 03:22:33;;;;;;;3.47;1.00;;;;;;;13.69;69.74;95369.50;5061664;28;20435;-67
2021/11/01 03:25:05;;;;;;;6.73;0.93;;;;;;;13.65;69.90;95369.16;5054310;28;20425;-65
2021/11/01 03:27:33;;;;;;;4.90;0.80;;;;;;;13.41;70.99;95368.16;5071667;28;20421;-65
2021/11/01 03:29:59;;;;;;;2.57;0.77;;;;;;;13.50;70.24;95369.50;5054267;28;20425;-65
2021/11/01 03:32:25;;;;;;;2.37;0.80;;;;;;;13.52;70.48;95371.88;5071631;28;20794;-65
2021/11/01 03:34:51;;;;;;;5.80;0.90;;;;;;;13.52;70.67;95379.78;5070253;28;20448;-65
2021/11/01 03:37:18;;;;;;;2.43;0.80;;;;;;;13.58;70.38;95389.47;5071488;28;20420;-66
2021/11/01 03:39:47;;;;;;;3.50;0.80;;;;;;;13.13;72.19;95392.19;5061262;28;20294;-66
2021/11/01 03:42:14;;;;;;;7.40;1.30;;;;;;;13.26;72.57;95397.34;5070207;28;20417;-66
2021/11/01 03:44:45;;;;;;;3.43;1.10;;;;;;;13.24;72.53;95399.38;5070489;28;20535;-64
2021/11/01 03:47:13;;;;;;;4.00;1.30;;;;;;;13.30;72.70;95408.25;5065190;28;20508;-65
2021/11/01 03:49:48;;;;;;;1.20;0.70;;;;;;;12.78;73.83;95414.44;5070017;28;20424;-66
2021/11/01 03:52:16;;;;;;;2.77;1.07;;;;;;;12.67;73.82;95423.78;5044622;28;20467;-66
2021/11/01 03:54:43;;;;;;;1.30;0.70;;;;;;;13.01;73.80;95428.88;5067315;28;20490;-66
2021/11/01 03:57:09;;;;;;;2.90;0.90;;;;;;;13.17;72.63;95435.47;5069876;28;20437;-68
2021/11/01 03:59:37;;;;;;;3.57;0.80;;;;;;;13.59;70.91;95451.63;5057976;28;20474;-65
2021/11/01 04:02:04;;;;;;;3.10;0.97;;;;;;;13.42;71.57;95453.94;5050074;28;20521;-67
2021/11/01 04:04:29;;;;;;;7.03;1.40;;;;;;;13.62;70.88;95438.00;5038603;28;21007;-67
2021/11/01 04:06:58;;;;;;;7.00;1.07;;;;;;;13.05;72.96;95449.28;5039206;28;20556;-66
2021/11/01 04:09:23;;;;;;;3.03;0.80;;;;;;;13.00;72.66;95440.41;5041372;28;20179;-66
2021/11/01 04:11:51;;;;;;;3.63;0.80;;;;;;;12.97;72.40;95441.66;5040867;28;20494;-68
2021/11/01 04:14:21;;;;;;;5.17;1.30;;;;;;;13.39;71.27;95441.19;5034966;28;20234;-65
2021/11/01 04:16:52;;;;;;;3.07;0.90;;;;;;;13.12;70.76;95459.78;5047766;28;20429;-65
2021/11/01 04:21:46;;;;;;;2.90;0.93;;;;;;;13.60;69.53;95474.28;5057400;28;20467;-66
2021/11/01 04:24:15;;;;;;;4.13;0.87;;;;;;;13.77;69.08;95477.19;5050950;28;20491;-65
2021/11/01 04:26:43;;;;;;;3.47;0.70;;;;;;;13.88;69.05;95480.94;5050743;28;20843;-66
2021/11/01 04:29:09;;;;;;;4.23;0.93;;;;;;;13.93;68.59;95486.38;5050381;28;20433;-66
2021/11/01 04:31:40;;;;;;;2.57;0.80;;;;;;;13.97;68.43;95492.81;5050840;28;20939;-66
2021/11/01 04:36:42;;;;;;;3.93;0.93;;;;;;;13.91;68.42;95469.97;5049694;28;20524;-66
2021/11/01 04:39:17;;;;;;;5.90;0.80;;;;;;;13.68;69.21;95475.81;5050342;28;20457;-65
2021/11/01 04:53:08;;;;;;;3.27;1.10;;;;;;;13.96;68.46;95496.47;5044222;28;20429;-66
2021/11/01 04:55:34;;;;;;;3.83;0.90;;;;;;;13.86;68.82;95505.88;5036649;28;20437;-64
2021/11/01 04:58:01;;;;;;;4.30;1.00;;;;;;;13.91;68.95;95514.75;5037337;28;20468;-66
2021/11/01 05:00:27;;;;;;;4.60;1.10;;;;;;;13.95;68.84;95510.66;5046811;28;20425;-66
2021/11/01 05:03:00;;;;;;;2.90;1.77;;;;;;;13.64;69.70;95503.59;5036305;28;20949;-66
2021/11/01 05:05:26;;;;;;;4.97;1.10;;;;;;;13.59;70.38;95506.06;5040355;28;20265;-65
2021/11/01 05:07:53;;;;;;;2.37;0.90;;;;;;;13.79;69.42;95508.56;5035952;28;20514;-65
2021/11/01 05:10:25;;;;;;;2.63;0.87;;;;;;;13.84;69.44;95508.72;5035824;28;20907;-66
2021/11/01 05:12:51;;;;;;;3.17;1.00;;;;;;;13.90;69.02;95502.59;5036227;28;20434;-67
2021/11/01 05:17:54;;;;;;;2.23;0.80;;;;;;;13.97;68.68;95513.06;5053610;28;20179;-64
2021/11/01 05:20:42;;;;;;;2.57;0.80;;;;;;;14.01;68.61;95510.81;5062334;28;20433;-66
2021/11/01 05:33:21;;;;;;;2.60;1.00;;;;;;;14.12;68.81;95521.47;5064516;28;20444;-66
2021/11/01 05:35:47;;;;;;;2.90;0.87;;;;;;;14.09;68.65;95527.16;5043340;28;20214;-67
2021/11/01 05:38:12;;;;;;;3.40;0.80;;;;;;;14.08;69.25;95532.66;5062189;28;20456;-66
2021/11/01 05:40:38;;;;;;;3.13;0.97;;;;;;;13.91;69.91;95538.44;5039958;28;20184;-68
2021/11/01 05:43:04;;;;;;;3.47;1.00;;;;;;;13.97;69.74;95529.69;5043345;28;20228;-65
2021/11/01 05:45:30;;;;;;;1.20;0.90;;;;;;;13.98;69.60;95531.31;5042233;28;20650;-65
2021/11/01 05:48:01;;;;;;;2.50;0.93;;;;;;;14.04;69.69;95529.66;5039481;28;20344;-65
2021/11/01 05:50:32;;;;;;;3.03;0.97;;;;;;;13.61;69.65;95532.97;5044032;28;20187;-66
2021/11/01 05:52:59;;;;;;;1.73;0.70;;;;;;;12.92;71.51;95533.47;5058740;28;20446;-65
2021/11/01 05:58:14;;;;;;;1.33;0.70;;;;;;;13.50;69.43;95529.19;5040846;28;20461;-64
2021/11/01 06:14:16;;;;;;;2.60;0.70;;;;;;;12.84;71.37;95536.34;5038585;28;20531;-65
2021/11/01 06:16:42;;;;;;;4.93;0.83;;;;;;;13.05;70.92;95525.53;5043295;28;20528;-66
2021/11/01 06:19:07;;;;;;;1.50;0.60;;;;;;;13.23;69.93;95529.31;5042591;28;20293;-66
2021/11/01 06:21:33;;;;;;;1.50;0.83;;;;;;;13.53;69.09;95523.50;5043508;28;20225;-64
2021/11/01 06:24:02;;;;;;;0.90;0.60;;;;;;;13.27;69.34;95530.50;5046071;28;20257;-66
2021/11/01 06:26:29;;;;;;;2.03;0.80;;;;;;;13.36;69.32;95523.16;5044641;28;20826;-64
2021/11/01 06:29:03;;;;;;;1.77;0.90;;;;;;;13.18;69.83;95526.50;5046480;28;20479;-65
2021/11/01 06:31:33;;;;;;;2.23;0.70;;;;;;;12.91;69.56;95537.13;5043032;28;20429;-66
2021/11/01 06:34:20;;;;;;;2.07;0.70;;;;;;;12.46;69.65;95527.34;5046116;28;20449;-63
2021/11/01 06:40:25;;;;;;;0.90;0.60;;;;;;;12.66;69.20;95532.53;5043841;28;20464;-64
2021/11/01 06:42:27;;;;;;;3.63;0.67;;;;;;;12.43;69.82;95531.19;5044481;28;20994;-66
2021/11/01 06:45:28;;;;;;;0.80;0.60;;;;;;;12.26;70.34;95532.63;5047473;28;20438;-64
2021/11/01 06:50:45;;;;;;;1.60;0.57;;;;;;;12.60;68.63;95531.56;5043886;28;20444;-63
2021/11/01 07:14:53;;;;;;;1.40;0.70;;;;;;;12.84;67.24;95547.66;5041832;28;20854;-65
2021/11/01 08:48:39;;;;;;;2.07;1.10;;;;;;;12.71;69.12;95595.81;5012763;28;20418;-64
2021/11/01 09:21:00;;;;;;;3.83;1.43;;;;;;;12.88;68.55;95563.81;5070828;28;20423;-65
2021/11/01 09:25:49;;;;;;;1.90;1.20;;;;;;;13.00;68.45;95571.88;5071062;28;20548;-65
2021/11/01 09:28:32;;;;;;;1.80;1.30;;;;;;;13.10;68.33;95581.97;5076918;28;20183;-66
2021/11/01 09:41:24;;;;;;;2.80;0.90;;;;;;;13.24;67.40;95594.03;5074583;28;20186;-66
2021/11/01 09:43:52;;;;;;;1.53;1.20;;;;;;;13.49;67.39;95586.28;5087540;28;20813;-67
2021/11/01 09:46:21;;;;;;;2.27;1.17;;;;;;;12.93;67.84;95582.41;5074161;28;20514;-67
2021/11/01 09:48:46;;;;;;;1.70;0.90;;;;;;;12.95;68.52;95583.03;5079649;28;20429;-66
2021/11/01 09:51:12;;;;;;;4.40;1.23;;;;;;;13.05;67.70;95582.56;5077693;28;20489;-65
2021/11/01 09:53:45;;;;;;;3.00;1.10;;;;;;;13.14;67.60;95583.16;5048810;28;20238;-66
2021/11/01 09:56:29;;;;;;;1.60;1.10;;;;;;;13.23;68.05;95589.81;5071485;28;20190;-66
2021/11/01 09:59:11;;;;;;;3.80;0.80;;;;;;;13.33;67.53;95608.59;5075933;28;20491;-65
2021/11/01 10:01:41;;;;;;;2.73;1.40;;;;;;;13.12;67.42;95606.22;5074588;28;20447;-67
2021/11/01 10:04:21;;;;;;;2.60;1.00;;;;;;;13.00;67.20;95613.97;5061255;28;20452;-65
2021/11/01 10:07:18;;;;;;;3.73;1.10;;;;;;;12.93;67.88;95621.03;5059356;28;20424;-65
2021/11/01 10:09:42;;;;;;;1.33;0.87;;;;;;;12.51;68.79;95618.69;5061785;28;20806;-66
2021/11/01 10:12:31;;;;;;;2.70;1.03;;;;;;;12.71;68.40;95601.09;5072492;28;20440;-65
2021/11/01 10:18:16;;;;;;;1.93;1.27;;;;;;;13.10;68.07;95598.56;5068497;28;20527;-66
2021/11/01 10:20:51;;;;;;;1.87;1.20;;;;;;;13.35;67.00;95597.84;5072016;28;20428;-68
2021/11/01 10:23:22;;;;;;;1.50;1.10;;;;;;;13.11;66.88;95588.81;5070856;28;21023;-68
2021/11/01 10:25:48;;;;;;;1.20;1.10;;;;;;;13.32;66.54;95580.66;5064078;28;21122;-66
2021/11/01 10:28:14;;;;;;;1.93;1.30;;;;;;;13.19;66.25;95575.47;5049623;28;20556;-67
2021/11/01 10:30:40;;;;;;;4.23;1.77;;;;;;;12.94;66.72;95580.59;5062883;28;20508;-66
2021/11/01 10:33:09;;;;;;;2.00;1.30;;;;;;;13.15;66.75;95584.78;5072736;28;20779;-67
2021/11/01 10:35:39;;;;;;;3.53;1.47;;;;;;;13.21;66.39;95589.22;5059356;28;20245;-67
2021/11/01 11:49:27;;;;;;;6.97;1.87;;;;;;;13.99;64.08;95526.84;5056509;28;20460;-65
2021/11/01 11:51:54;;;;;;;1.40;1.30;;;;;;;14.01;64.31;95529.25;5069138;28;20282;-64
2021/11/01 11:54:43;;;;;;;1.40;1.30;;;;;;;14.08;64.01;95515.00;5044847;28;20808;-65
2021/11/01 11:57:25;;;;;;;1.67;1.47;;;;;;;13.97;63.88;95513.91;5057051;28;20506;-65
2021/11/01 11:59:54;;;;;;;1.60;1.50;;;;;;;14.06;63.87;95510.97;5054903;28;20488;-65
2021/11/01 12:02:45;;;;;;;1.97;1.20;;;;;;;14.08;64.01;95507.09;5071090;28;21014;-65
2021/11/01 12:05:26;;;;;;;1.30;1.00;;;;;;;13.88;63.88;95517.78;5071354;28;20903;-66
2021/11/01 12:19:17;;;;;;;1.50;1.23;;;;;;;13.88;63.85;95512.53;5047190;28;20455;-65
2021/11/01 12:21:45;;;;;;;2.90;1.30;;;;;;;14.01;64.28;95508.19;5063174;28;20535;-65
2021/11/01 12:24:18;;;;;;;1.00;0.90;;;;;;;13.82;64.72;95518.66;5053882;28;20907;-64
2021/11/01 12:26:44;;;;;;;2.43;1.23;;;;;;;13.89;64.27;95513.34;5067066;28;21029;-67
2021/11/01 12:29:12;;;;;;;3.20;2.60;;;;;;;13.90;65.02;95499.97;5048345;28;20525;-65
2021/11/01 12:31:38;;;;;;;2.90;1.30;;;;;;;13.89;64.05;95490.44;5061520;28;20619;-65
2021/11/01 12:34:20;;;;;;;1.80;1.60;;;;;;;13.66;64.86;95496.31;5047698;28;20458;-64
2021/11/01 12:36:54;;;;;;;1.47;1.33;;;;;;;13.79;64.40;95498.84;5039966;28;20521;-65
2021/11/01 12:42:23;;;;;;;2.57;2.00;;;;;;;13.88;64.11;95496.72;5056414;28;20436;-65
2021/11/01 12:58:30;;;;;;;5.03;3.07;;;;;;;14.26;63.67;95453.63;5054937;28;20460;-64
2021/11/01 13:00:57;;;;;;;5.47;2.13;;;;;;;14.33;63.47;95447.50;5035424;28;20431;-64
2021/11/01 13:03:22;;;;;;;3.03;1.90;;;;;;;14.17;63.95;95433.88;5045321;28;20471;-64
2021/11/01 13:06:03;;;;;;;4.67;2.17;;;;;;;14.13;63.61;95432.69;5045667;28;20426;-64
2021/11/01 13:08:34;;;;;;;1.90;1.70;;;;;;;14.26;63.27;95443.09;5058639;28;20174;-65
2021/11/01 13:11:04;;;;;;;3.10;1.60;;;;;;;14.28;62.49;95442.91;5069639;28;20424;-67
2021/11/01 13:13:44;;;;;;;2.10;1.90;;;;;;;14.00;63.00;95432.81;5069823;28;20445;-67
2021/11/01 13:19:15;;;;;;;4.03;2.30;;;;;;;13.79;63.81;95450.63;5065275;28;20460;-67
2021/11/01 13:24:17;;;;;;;3.70;2.13;;;;;;;13.88;63.92;95451.97;5055564;28;20556;-65
2021/11/01 13:27:00;;;;;;;3.37;2.30;;;;;;;14.13;63.21;95448.50;5063040;28;20432;-65
2021/11/01 13:37:38;;;;;;;3.00;1.87;;;;;;;14.20;62.63;95441.34;5059807;28;20484;-64
2021/11/01 13:40:13;;;;;;;8.27;1.73;;;;;;;14.36;62.33;95437.34;5056204;28;20880;-65
2021/11/01 13:42:46;;;;;;;1.77;1.53;;;;;;;14.16;63.09;95442.00;5057519;28;20928;-65
2021/11/01 13:45:16;;;;;;;3.10;1.77;;;;;;;14.31;62.07;95455.63;5069795;28;20480;-63
2021/11/01 13:48:08;;;;;;;3.47;1.67;;;;;;;14.19;62.50;95454.72;5068374;28;20995;-64
2021/11/01 13:50:37;;;;;;;2.50;1.60;;;;;;;14.29;62.12;95455.06;5058493;28;20951;-64
2021/11/01 13:53:11;;;;;;;4.87;2.10;;;;;;;14.28;62.25;95446.31;5059820;28;20486;-66
2021/11/01 13:58:24;;;;;;;2.73;1.60;;;;;;;14.18;62.04;95448.66;5064733;28;20444;-65
2021/11/01 14:11:53;;;;;;;3.50;2.10;;;;;;;14.42;60.86;95430.38;5075230;28;21650;-65
2021/11/01 14:27:38;;;;;;;1.73;1.40;;;;;;;14.59;59.63;95423.50;5079323;28;20421;-65
2021/11/01 14:31:06;;;;;;;2.33;2.10;;;;;;;14.67;59.52;95414.53;5054708;28;20507;-65
2021/11/01 15:18:11;;;;;;;2.13;1.70;;;;;;;14.51;58.90;95394.78;5059616;28;20479;-67
2021/11/01 15:23:45;;;;;;;3.40;1.30;;;;;;;14.48;58.81;95387.34;5038267;28;20498;-63
2021/11/01 15:26:28;;;;;;;8.73;2.07;;;;;;;14.39;59.01;95393.91;5071119;28;20436;-66
2021/11/01 15:36:46;;;;;;;2.00;1.80;;;;;;;14.01;59.35;95392.31;5072001;28;20437;-66
2021/11/01 16:20:11;;;;;;;5.63;3.00;;;;;;;13.62;62.22;95406.41;5053167;28;20465;-66
2021/11/01 16:22:41;;;;;;;4.77;2.43;;;;;;;13.56;62.69;95402.03;5064831;28;20800;-64
2021/11/01 16:25:07;;;;;;;3.37;2.43;;;;;;;13.38;63.75;95405.38;5070181;28;20444;-64
2021/11/01 16:27:34;;;;;;;3.03;2.73;;;;;;;13.45;63.41;95406.16;5071440;28;20509;-65
2021/11/01 16:30:14;;;;;;;4.50;3.00;;;;;;;13.40;63.78;95410.44;5056544;28;20774;-65
2021/11/01 16:32:43;;;;;;;3.50;2.40;;;;;;;13.50;63.32;95411.59;5066507;28;20450;-65
2021/11/01 16:35:11;;;;;;;3.33;3.00;;;;;;;13.54;63.32;95408.53;5059247;28;20552;-66
2021/11/01 16:37:43;;;;;;;4.53;2.30;;;;;;;13.30;64.21;95414.34;5071489;28;20424;-67
2021/11/01 16:40:12;;;;;;;4.37;2.80;;;;;;;13.48;63.69;95420.72;5064617;28;20478;-64
2021/11/01 16:42:40;;;;;;;4.13;2.73;;;;;;;13.20;64.30;95417.44;5033752;28;20430;-67
2021/11/01 16:45:10;;;;;;;4.87;2.70;;;;;;;13.34;64.30;95426.06;5069203;28;20444;-64
2021/11/01 16:47:37;;;;;;;9.73;3.43;;;;;;;13.12;64.84;95422.13;5066772;28;20908;-65
2021/11/01 16:50:05;;;;;;;6.57;3.53;;;;;;;13.13;64.97;95429.00;5063463;28;20425;-64
2021/11/01 16:52:33;;;;;;;5.80;2.87;;;;;;;13.05;65.21;95430.06;5060509;28;20872;-68
2021/11/01 16:55:03;;;;;;;4.07;2.60;;;;;;;13.31;64.41;95428.28;5072708;28;20475;-66
2021/11/01 16:57:36;;;;;;;5.90;2.93;;;;;;;13.35;64.13;95424.22;5046188;28;20873;-67
2021/11/01 17:00:25;;;;;;;4.37;3.60;;;;;;;13.39;63.82;95422.78;5069505;28;20970;-66
2021/11/01 17:29:47;;;;;;;2.43;2.23;;;;;;;13.00;63.85;95420.19;5075212;28;20652;-66
2021/11/01 17:35:22;;;;;;;4.35;3.10;;;;;;;12.85;64.89;95424.94;5063140;28;20436;-65
2021/11/01 18:51:33;;;;;;;2.40;2.13;;;;;;;11.79;65.13;95410.06;5065174;28;20417;-66
2021/11/01 18:54:11;;;;;;;2.57;2.37;;;;;;;11.71;65.06;95402.41;5073260;28;20459;-67
2021/11/01 18:56:40;;;;;;;4.13;2.50;;;;;;;11.62;65.30;95400.97;5073564;28;20443;-67
2021/11/01 18:59:07;;;;;;;2.93;2.63;;;;;;;11.77;64.66;95408.66;5072718;28;20453;-66
2021/11/01 19:01:35;;;;;;;2.43;2.23;;;;;;;11.72;64.72;95406.63;5028626;28;20736;-66
2021/11/01 19:04:05;;;;;;;4.20;2.60;;;;;;;11.86;63.89;95398.72;5066202;28;20462;-65
2021/11/01 20:12:33;;;;;;;3.40;2.70;;;;;;;10.38;69.20;95424.72;5047905;28;20470;-66
2021/11/01 21:25:15;;;;;;;4.23;2.63;;;;;;;10.59;70.42;95427.22;5070331;28;20447;-67
2021/11/01 21:27:41;;;;;;;5.83;3.17;;;;;;;10.65;67.54;95416.97;5070174;28;20448;-67
2021/11/01 21:30:08;;;;;;;5.70;2.80;;;;;;;10.38;69.95;95419.47;5068338;28;20448;-66
2021/11/01 21:32:33;;;;;;;3.53;2.83;;;;;;;12.58;68.02;95422.41;5069777;28;20440;-66
2021/11/01 21:35:03;;;;;;;6.13;2.50;;;;;;;13.90;60.13;95413.06;5070048;28;20835;-66
2021/11/01 21:37:28;;;;;;;4.07;2.60;;;;;;;14.01;57.42;95408.09;5068778;28;20183;-66
2021/11/01 21:39:54;;;;;;;11.60;2.47;;;;;;;14.50;63.28;95402.94;5069776;28;20540;-68
2021/11/01 21:42:20;;;;;;;2.43;2.20;;;;;;;13.52;58.06;95412.19;5062125;28;20175;-67
2021/11/01 21:44:47;;;;;;;6.83;2.77;;;;;;;14.58;59.81;95398.16;5069172;28;20463;-68
2021/11/01 21:47:12;;;;;;;3.77;2.20;;;;;;;16.48;51.31;95399.50;5063575;28;20178;-66
2021/11/01 21:49:38;;;;;;;5.90;2.43;;;;;;;16.54;47.79;95403.84;5065772;28;20428;-66
2021/11/01 21:52:04;;;;;;;7.13;2.27;;;;;;;16.56;57.38;95397.31;5068200;28;20182;-68
2021/11/01 21:54:50;;;;;;;4.53;2.10;;;;;;;17.98;53.14;95392.31;5069043;28;20205;-66
2021/11/01 21:57:21;;;;;;;16.33;2.23;;;;;;;19.16;48.85;95395.56;5055464;28;20503;-66
2021/11/01 22:16:42;;;;;;;2.93;1.87;;;;;;;20.41;38.05;95355.50;5058289;28;20427;-66
2021/11/01 22:21:03;;;;;;;3.97;2.00;;;;;;;19.87;44.81;95351.25;5072074;28;20428;-66
2021/11/01 22:34:38;;;;;;;2.20;1.50;;;;;;;20.42;42.65;95351.78;5087006;28;20493;-66
2021/11/01 22:39:57;;;;;;;3.50;1.60;;;;;;;19.54;44.26;95349.66;5067166;28;20471;-68
2021/11/01 22:55:49;;;;;;;2.87;1.30;;;;;;;20.09;43.59;95345.81;5071723;28;20932;-66
2021/11/01 22:58:16;;;;;;;3.03;1.57;;;;;;;20.07;41.57;95347.91;5072372;28;20412;-66
2021/11/01 23:00:48;;;;;;;1.97;1.37;;;;;;;19.70;41.17;95343.41;5060654;28;20468;-66
2021/11/01 23:33:32;;;;;;;3.40;1.33;;;;;;;19.47;43.90;95310.88;5047301;28;20460;-68
2021/11/01 23:35:58;;;;;;;4.40;1.57;;;;;;;19.75;39.74;95316.06;5039037;28;20449;-66
2021/11/01 23:38:24;;;;;;;2.17;1.20;;;;;;;19.77;43.51;95311.31;5033412;28;20191;-66
2021/11/01 23:40:50;;;;;;;3.10;1.60;;;;;;;20.18;42.17;95308.91;5036746;28;20221;-67
2021/11/01 23:43:16;;;;;;;2.33;1.40;;;;;;;19.65;43.35;95304.34;5051338;28;20433;-66
2021/11/01 23:45:44;;;;;;;2.00;1.20;;;;;;;19.57;41.85;95299.50;5049327;28;20512;-66
2021/11/01 23:48:11;;;;;;;1.83;1.40;;;;;;;19.88;42.57;95298.91;5051153;28;20934;-67
2021/11/01 23:50:37;;;;;;;2.10;1.30;;;;;;;19.77;43.02;95298.84;5070579;28;20428;-67
2021/11/01 23:56:00;;;;;;;1.77;1.30;;;;;;;19.66;43.25;95289.19;5065078;28;20433;-66
2021/11/01 23:58:25;;;;;;;1.50;1.23;;;;;;;19.54;43.67;95289.41;5074477;28;20520;-66
